createdAt,value
2018-04-10T00:00:49.887Z,36.20
2018-04-10T00:02:56.481Z,36.30
2018-04-10T00:05:02.664Z,34.47
2018-04-10T00:07:09.451Z,35.90
2018-04-10T00:09:16.082Z,33.50
2018-04-10T00:11:23.051Z,36.10
2018-04-10T00:13:28.742Z,37.10
2018-04-10T00:15:35.544Z,35.27
2018-04-10T00:17:41.533Z,37.30
2018-04-10T00:19:47.848Z,33.90
2018-04-10T00:21:53.742Z,35.07
2018-04-10T00:24:00.831Z,34.50
2018-04-10T00:26:06.608Z,32.87
2018-04-10T00:28:12.487Z,33.50
2018-04-10T00:30:17.681Z,31.70
2018-04-10T00:32:23.214Z,30.50
2018-04-10T00:34:29.059Z,33.70
2018-04-10T00:36:34.164Z,32.70
2018-04-10T00:38:41.078Z,30.20
2018-04-10T00:40:46.782Z,33.10
2018-04-10T00:42:51.962Z,32.80
2018-04-10T00:44:57.376Z,33.33
2018-04-10T00:47:03.030Z,33.03
2018-04-10T00:49:09.020Z,33.17
2018-04-10T00:51:15.115Z,32.60
2018-04-10T00:53:28.693Z,29.77
2018-04-10T00:55:33.875Z,31.70
2018-04-10T00:57:39.435Z,33.17
2018-04-10T00:59:44.559Z,30.80
2018-04-10T01:01:50.231Z,32.30
2018-04-10T01:03:55.978Z,28.80
2018-04-10T01:06:01.141Z,30.87
2018-04-10T01:08:07.163Z,31.90
2018-04-10T01:10:12.635Z,30.73
2018-04-10T01:12:18.121Z,32.70
2018-04-10T01:14:28.546Z,32.40
2018-04-10T01:16:33.954Z,30.53
2018-04-10T01:18:39.206Z,30.00
2018-04-10T01:20:44.287Z,30.53
2018-04-10T01:22:50.280Z,30.03
2018-04-10T01:24:55.399Z,30.90
2018-04-10T01:27:01.101Z,28.40
2018-04-10T01:29:06.651Z,29.23
2018-04-10T01:31:12.490Z,29.10
2018-04-10T01:33:18.970Z,28.27
2018-04-10T01:35:24.557Z,33.07
2018-04-10T01:37:29.782Z,27.10
2018-04-10T01:39:35.650Z,27.70
2018-04-10T01:41:41.685Z,26.60
2018-04-10T01:43:47.258Z,26.87
2018-04-10T01:45:52.588Z,27.63
2018-04-10T01:47:58.696Z,26.90
2018-04-10T01:50:04.014Z,27.10
2018-04-10T01:52:09.239Z,27.57
2018-04-10T01:54:14.908Z,26.17
2018-04-10T01:56:20.366Z,25.57
2018-04-10T01:58:25.697Z,25.50
2018-04-10T02:00:30.966Z,25.73
2018-04-10T02:02:37.216Z,25.93
2018-04-10T02:04:43.133Z,28.33
2018-04-10T02:06:48.827Z,26.93
2018-04-10T02:08:54.785Z,24.83
2018-04-10T02:20:29.563Z,22.47
2018-04-10T02:22:35.103Z,24.90
2018-04-10T02:24:41.014Z,25.57
2018-04-10T02:26:46.670Z,23.40
2018-04-10T02:28:52.658Z,26.03
2018-04-10T02:30:57.959Z,24.67
2018-04-10T02:33:03.677Z,23.93
2018-04-10T02:35:09.058Z,22.70
2018-04-10T02:37:14.517Z,23.67
2018-04-10T02:39:21.012Z,23.30
2018-04-10T02:41:27.006Z,26.37
2018-04-10T02:43:32.906Z,25.57
2018-04-10T02:45:38.813Z,25.63
2018-04-10T02:47:44.418Z,26.50
2018-04-10T02:49:49.910Z,26.40
2018-04-10T02:51:55.284Z,28.57
2018-04-10T02:54:01.019Z,28.70
2018-04-10T02:56:06.431Z,27.40
2018-04-10T02:58:12.763Z,28.23
2018-04-10T03:00:18.648Z,28.67
2018-04-10T03:02:24.589Z,28.20
2018-04-10T03:04:30.538Z,28.80
2018-04-10T03:06:36.211Z,28.50
2018-04-10T03:08:41.615Z,27.80
2018-04-10T03:10:47.111Z,27.73
2018-04-10T03:12:52.567Z,28.87
2018-04-10T03:14:58.501Z,28.53
2018-04-10T03:17:03.827Z,30.10
2018-04-10T03:19:09.911Z,28.90
2018-04-10T03:21:16.887Z,27.30
2018-04-10T03:23:22.254Z,29.30
2018-04-10T03:25:27.611Z,29.03
2018-04-10T03:27:33.603Z,28.60
2018-04-10T03:29:39.791Z,27.60
2018-04-10T03:31:46.932Z,29.77
2018-04-10T03:33:53.062Z,28.67
2018-04-10T03:35:58.878Z,28.50
2018-04-10T03:38:04.808Z,29.10
2018-04-10T03:40:10.172Z,27.33
2018-04-10T03:42:16.125Z,29.30
2018-04-10T03:44:21.462Z,27.33
2018-04-10T03:46:27.433Z,26.00
2018-04-10T03:48:32.830Z,28.60
2018-04-10T03:50:38.350Z,26.63
2018-04-10T03:52:44.566Z,26.43
2018-04-10T03:54:50.946Z,27.07
2018-04-10T03:56:56.860Z,26.80
2018-04-10T03:59:02.689Z,27.90
2018-04-10T04:01:09.095Z,28.00
2018-04-10T04:03:14.822Z,26.63
2018-04-10T04:05:20.421Z,28.03
2018-04-10T04:07:26.218Z,26.47
2018-04-10T04:09:31.442Z,25.83
2018-04-10T04:11:37.573Z,28.03
2018-04-10T04:13:43.513Z,26.00
2018-04-10T04:15:49.485Z,26.47
2018-04-10T04:17:54.794Z,28.10
2018-04-10T04:21:08.452Z,25.87
2018-04-10T04:23:14.338Z,28.13
2018-04-10T04:25:19.974Z,27.00
2018-04-10T04:27:26.205Z,27.60
2018-04-10T04:29:31.460Z,27.10
2018-04-10T04:31:37.175Z,25.57
2018-04-10T04:33:42.481Z,26.90
2018-04-10T04:35:48.098Z,28.13
2018-04-10T04:37:53.743Z,28.93
2018-04-10T04:39:59.594Z,26.60
2018-04-10T04:42:05.161Z,28.73
2018-04-10T04:44:10.755Z,29.83
2018-04-10T04:46:16.046Z,27.43
2018-04-10T04:48:22.116Z,26.83
2018-04-10T04:50:27.917Z,28.90
2018-04-10T04:52:33.302Z,27.17
2018-04-10T04:54:38.599Z,27.47
2018-04-10T04:56:44.262Z,26.67
2018-04-10T04:58:49.688Z,25.67
2018-04-10T05:00:55.155Z,27.90
2018-04-10T05:03:00.718Z,29.40
2018-04-10T05:05:06.009Z,27.33
2018-04-10T05:07:11.261Z,27.10
2018-04-10T05:09:16.919Z,29.50
2018-04-10T05:11:22.194Z,83.00
2018-04-10T05:13:28.019Z,70.57
2018-04-10T05:15:33.595Z,243.77
2018-04-10T05:17:38.898Z,725.17
2018-04-10T05:19:44.186Z,488.97
2018-04-10T05:21:50.279Z,309.97
2018-04-10T05:23:55.886Z,381.60
2018-04-10T05:26:01.734Z,537.17
2018-04-10T05:28:07.706Z,874.77
2018-04-10T05:30:13.098Z,639.17
2018-04-10T05:32:18.358Z,741.77
2018-04-10T05:34:23.957Z,733.37
2018-04-10T05:36:29.188Z,575.47
2018-04-10T05:38:34.501Z,470.83
2018-04-10T05:40:40.046Z,403.63
2018-04-10T05:42:45.458Z,706.57
2018-04-10T05:44:50.750Z,501.30
2018-04-10T05:46:56.873Z,259.47
2018-04-10T05:49:03.686Z,150.80
2018-04-10T05:51:09.049Z,104.43
2018-04-10T05:53:16.295Z,316.97
2018-04-10T05:55:24.896Z,626.30
2018-04-10T05:57:31.484Z,615.13
2018-04-10T05:59:39.641Z,326.97
2018-04-10T06:01:47.974Z,202.07
2018-04-10T06:03:54.021Z,874.50
2018-04-10T06:05:59.986Z,967.30
2018-04-10T06:08:05.581Z,564.40
2018-04-10T06:10:15.343Z,607.10
2018-04-10T06:12:25.086Z,695.57
2018-04-10T06:14:32.687Z,173.40
2018-04-10T06:16:44.064Z,88.50
2018-04-10T06:18:55.724Z,116.00
2018-04-10T06:21:01.263Z,244.80
2018-04-10T06:23:06.647Z,999.90
2018-04-10T06:25:12.282Z,758.30
2018-04-10T06:27:17.808Z,999.90
2018-04-10T06:29:23.433Z,269.63
2018-04-10T06:31:30.084Z,814.33
2018-04-10T06:33:35.526Z,613.80
2018-04-10T06:35:40.986Z,999.90
2018-04-10T06:37:46.648Z,793.07
2018-04-10T06:39:51.998Z,637.13
2018-04-10T06:41:57.265Z,999.90
2018-04-10T06:44:03.697Z,999.90
2018-04-10T06:46:09.150Z,485.07
2018-04-10T06:48:15.009Z,79.23
2018-04-10T06:50:20.866Z,999.90
2018-04-10T06:52:26.452Z,347.00
2018-04-10T06:54:31.727Z,92.97
2018-04-10T06:56:37.023Z,67.10
2018-04-10T06:58:42.670Z,56.93
2018-04-10T07:00:47.946Z,602.00
2018-04-10T07:02:53.241Z,996.97
2018-04-10T07:04:58.812Z,999.90
2018-04-10T07:07:04.158Z,710.27
2018-04-10T07:09:09.489Z,362.60
2018-04-10T07:11:15.054Z,999.90
2018-04-10T07:13:20.334Z,999.90
2018-04-10T07:15:25.643Z,137.67
2018-04-10T07:17:31.726Z,67.10
2018-04-10T07:19:37.090Z,66.07
2018-04-10T07:21:43.751Z,675.67
2018-04-10T07:23:49.530Z,605.83
2018-04-10T07:25:55.481Z,999.90
2018-04-10T07:28:01.423Z,523.93
2018-04-10T07:30:07.514Z,894.57
2018-04-10T07:32:12.829Z,999.90
2018-04-10T07:34:18.150Z,999.90
2018-04-10T07:36:24.147Z,999.90
2018-04-10T07:38:29.432Z,650.83
2018-04-10T07:40:34.750Z,129.60
2018-04-10T07:42:40.682Z,999.90
2018-04-10T07:44:46.355Z,947.50
2018-04-10T07:46:51.609Z,550.33
2018-04-10T07:48:57.211Z,347.87
2018-04-10T07:51:03.422Z,984.67
2018-04-10T07:53:08.732Z,999.90
2018-04-10T07:55:14.919Z,143.30
2018-04-10T07:57:20.261Z,999.90
2018-04-10T07:59:25.635Z,999.90
2018-04-10T08:01:32.078Z,111.20
2018-04-10T08:03:37.300Z,75.43
2018-04-10T08:05:42.579Z,684.03
2018-04-10T08:07:48.162Z,115.50
2018-04-10T08:09:53.515Z,64.07
2018-04-10T08:11:58.960Z,327.23
2018-04-10T08:14:04.609Z,83.70
2018-04-10T08:16:10.204Z,59.27
2018-04-10T08:18:15.458Z,54.50
2018-04-10T08:20:21.545Z,55.90
2018-04-10T08:22:27.002Z,279.50
2018-04-10T08:24:32.264Z,56.33
2018-04-10T08:26:37.784Z,66.47
2018-04-10T08:28:43.087Z,133.73
2018-04-10T08:30:48.742Z,58.70
2018-04-10T08:32:54.642Z,52.30
2018-04-10T08:35:00.050Z,53.73
2018-04-10T08:37:05.419Z,53.10
2018-04-10T08:39:11.540Z,48.90
2018-04-10T08:41:16.777Z,50.40
2018-04-10T08:43:22.252Z,51.63
2018-04-10T08:45:28.494Z,49.60
2018-04-10T08:47:33.791Z,55.90
2018-04-10T08:49:39.106Z,135.67
2018-04-10T08:51:44.715Z,54.10
2018-04-10T08:53:50.006Z,56.97
2018-04-10T08:55:55.314Z,56.90
2018-04-10T08:58:00.869Z,49.87
2018-04-10T09:00:07.255Z,54.37
2018-04-10T09:02:12.517Z,56.03
2018-04-10T09:04:18.053Z,52.53
2018-04-10T09:06:23.750Z,55.27
2018-04-10T09:08:29.041Z,379.27
2018-04-10T09:10:34.652Z,57.30
2018-04-10T09:12:39.902Z,406.63
2018-04-10T09:14:45.207Z,569.83
2018-04-10T09:16:51.155Z,74.40
2018-04-10T09:18:56.426Z,60.50
2018-04-10T09:21:01.722Z,57.40
2018-04-10T09:23:07.302Z,671.27
2018-04-10T09:25:12.582Z,69.17
2018-04-10T09:27:17.839Z,64.60
2018-04-10T09:29:23.421Z,69.27
2018-04-10T09:31:28.680Z,189.60
2018-04-10T09:33:33.936Z,57.60
2018-04-10T09:35:39.587Z,61.27
2018-04-10T09:37:44.881Z,50.70
2018-04-10T09:39:50.122Z,48.20
2018-04-10T09:41:55.694Z,61.33
2018-04-10T09:44:01.110Z,462.73
2018-04-10T09:46:06.318Z,94.83
2018-04-10T09:48:11.901Z,51.73
2018-04-10T09:50:17.127Z,270.87
2018-04-10T09:52:22.394Z,228.50
2018-04-10T09:54:32.094Z,191.50
2018-04-10T09:56:37.378Z,126.53
2018-04-10T09:58:42.749Z,229.77
2018-04-10T10:00:48.258Z,213.73
2018-04-10T10:02:53.566Z,473.87
2018-04-10T10:04:59.030Z,266.30
2018-04-10T10:07:04.855Z,999.90
2018-04-10T10:09:10.282Z,166.17
2018-04-10T10:11:15.531Z,278.17
2018-04-10T10:13:21.078Z,144.93
2018-04-10T10:15:26.463Z,90.00
2018-04-10T10:17:32.650Z,171.47
2018-04-10T10:19:38.242Z,113.13
2018-04-10T10:21:43.462Z,91.17
2018-04-10T10:23:48.711Z,62.60
2018-04-10T10:25:54.310Z,862.43
2018-04-10T10:28:00.106Z,999.90
2018-04-10T10:30:05.469Z,507.67
2018-04-10T10:32:11.159Z,514.77
2018-04-10T10:34:16.822Z,275.90
2018-04-10T10:36:22.146Z,738.47
2018-04-10T10:38:27.915Z,448.67
2018-04-10T10:40:33.666Z,113.73
2018-04-10T10:42:39.642Z,90.40
2018-04-10T10:44:45.151Z,76.30
2018-04-10T10:46:50.490Z,67.53
2018-04-10T10:48:55.834Z,61.30
2018-04-10T10:51:01.415Z,60.17
2018-04-10T10:53:06.727Z,58.80
2018-04-10T10:55:11.978Z,386.13
2018-04-10T10:57:17.542Z,106.43
2018-04-10T10:59:22.811Z,188.57
2018-04-10T11:01:28.107Z,508.00
2018-04-10T11:03:33.707Z,296.70
2018-04-10T11:05:38.986Z,257.73
2018-04-10T11:07:44.262Z,573.83
2018-04-10T11:09:49.954Z,851.30
2018-04-10T11:11:55.268Z,651.80
2018-04-10T11:14:00.522Z,672.80
2018-04-10T11:16:06.311Z,554.63
2018-04-10T11:18:11.593Z,458.20
2018-04-10T11:20:16.878Z,506.27
2018-04-10T11:22:22.587Z,189.03
2018-04-10T11:24:28.552Z,810.57
2018-04-10T11:26:33.798Z,478.47
2018-04-10T11:28:39.334Z,651.67
2018-04-10T11:30:44.650Z,295.43
2018-04-10T11:32:49.901Z,633.30
2018-04-10T11:34:55.606Z,256.37
2018-04-10T11:37:00.881Z,436.47
2018-04-10T11:39:07.231Z,362.90
2018-04-10T11:41:12.755Z,756.07
2018-04-10T11:43:18.132Z,203.93
2018-04-10T11:45:23.422Z,289.87
2018-04-10T11:47:29.100Z,294.07
2018-04-10T11:49:34.381Z,780.40
2018-04-10T11:51:39.687Z,312.63
2018-04-10T11:53:45.271Z,114.87
2018-04-10T11:55:50.634Z,971.67
2018-04-10T11:57:55.958Z,390.57
2018-04-10T12:00:01.577Z,789.10
2018-04-10T12:02:07.343Z,445.50
2018-04-10T12:04:12.719Z,397.20
2018-04-10T12:06:18.288Z,440.00
2018-04-10T12:08:23.599Z,529.80
2018-04-10T12:10:29.001Z,827.33
2018-04-10T12:12:34.605Z,679.63
2018-04-10T12:14:39.862Z,365.47
2018-04-10T12:16:45.174Z,301.07
2018-04-10T12:18:50.790Z,298.30
2018-04-10T12:20:56.072Z,144.43
2018-04-10T12:23:05.510Z,122.13
2018-04-10T12:25:11.185Z,167.93
2018-04-10T12:27:16.497Z,100.17
2018-04-10T12:29:21.890Z,999.90
2018-04-10T12:31:27.473Z,289.80
2018-04-10T12:33:32.979Z,446.53
2018-04-10T12:35:38.222Z,217.87
2018-04-10T12:37:43.778Z,252.00
2018-04-10T12:39:49.038Z,419.67
2018-04-10T12:41:54.302Z,227.73
2018-04-10T12:50:02.610Z,144.53
2018-04-10T12:52:07.838Z,154.40
2018-04-10T12:54:13.026Z,999.90
2018-04-10T12:56:18.510Z,797.13
2018-04-10T12:58:23.703Z,575.20
2018-04-10T13:00:28.978Z,999.90
2018-04-10T13:02:34.549Z,731.07
2018-04-10T13:04:39.747Z,999.90
2018-04-10T13:06:45.032Z,721.73
2018-04-10T13:08:50.570Z,995.37
2018-04-10T13:10:56.063Z,849.23
2018-04-10T13:13:01.426Z,417.43
2018-04-10T13:15:07.076Z,393.47
2018-04-10T13:17:12.354Z,282.20
2018-04-10T13:19:17.689Z,518.83
2018-04-10T13:21:23.354Z,999.90
2018-04-10T13:23:28.688Z,999.90
2018-04-10T13:25:33.933Z,779.57
2018-04-10T13:27:39.426Z,732.07
2018-04-10T13:29:44.786Z,535.00
2018-04-10T13:31:50.030Z,424.13
2018-04-10T13:33:55.716Z,295.47
2018-04-10T13:36:01.037Z,205.93
2018-04-10T13:38:06.480Z,138.13
2018-04-10T13:40:12.223Z,86.50
2018-04-10T13:42:17.636Z,999.90
2018-04-10T13:44:22.977Z,999.90
2018-04-10T13:46:28.501Z,686.67
2018-04-10T13:48:33.884Z,999.90
2018-04-10T13:50:39.204Z,408.47
2018-04-10T13:52:44.883Z,335.47
2018-04-10T13:54:50.182Z,322.03
2018-04-10T13:56:55.497Z,225.53
2018-04-10T13:59:01.263Z,599.70
2018-04-10T14:01:06.558Z,182.00
2018-04-10T14:03:11.979Z,141.70
2018-04-10T14:05:17.546Z,149.07
2018-04-10T14:07:23.145Z,116.93
2018-04-10T14:09:28.430Z,85.30
2018-04-10T14:11:34.059Z,48.93
2018-04-10T14:13:39.446Z,38.50
2018-04-10T14:15:44.771Z,33.90
2018-04-10T14:17:50.209Z,30.43
2018-04-10T14:19:55.498Z,27.70
2018-04-10T14:22:00.914Z,25.13
2018-04-10T14:24:06.451Z,24.43
2018-04-10T14:26:11.747Z,23.83
2018-04-10T14:28:17.031Z,23.00
2018-04-10T14:30:22.801Z,22.67
2018-04-10T14:32:28.028Z,20.97
2018-04-10T14:34:33.505Z,20.33
2018-04-10T14:36:39.233Z,18.87
2018-04-10T14:38:44.545Z,19.03
2018-04-10T14:40:50.052Z,18.70
2018-04-10T14:42:55.597Z,18.13
2018-04-10T14:45:00.979Z,17.33
2018-04-10T14:47:06.256Z,15.57
2018-04-10T14:49:11.777Z,16.10
2018-04-10T14:51:17.047Z,15.87
2018-04-10T14:53:22.690Z,15.73
2018-04-10T14:55:28.463Z,15.77
2018-04-10T14:57:34.100Z,14.93
2018-04-10T14:59:39.507Z,14.97
2018-04-10T15:01:45.295Z,198.90
2018-04-10T15:03:50.704Z,473.20
2018-04-10T15:05:56.022Z,953.33
2018-04-10T15:08:01.582Z,238.57
2018-04-10T15:10:07.022Z,163.23
2018-04-10T15:12:13.129Z,141.70
2018-04-10T15:14:18.881Z,151.37
2018-04-10T15:16:24.942Z,126.23
2018-04-10T15:18:30.796Z,124.13
2018-04-10T15:20:36.569Z,102.63
2018-04-10T15:22:42.140Z,73.10
2018-04-10T15:24:47.608Z,81.00
2018-04-10T15:26:53.636Z,235.40
2018-04-10T15:28:59.076Z,457.77
2018-04-10T15:31:04.519Z,251.47
2018-04-10T15:33:10.207Z,307.90
2018-04-10T15:35:15.619Z,273.37
2018-04-10T15:37:21.939Z,279.27
2018-04-10T15:39:27.765Z,259.83
2018-04-10T15:41:33.155Z,228.23
2018-04-10T15:43:39.027Z,198.20
2018-04-10T15:45:44.829Z,197.97
2018-04-10T15:47:50.674Z,173.70
2018-04-10T15:49:55.979Z,160.87
2018-04-10T15:52:01.794Z,149.87
2018-04-10T15:54:07.609Z,133.87
2018-04-10T15:56:15.413Z,125.73
2018-04-10T15:58:20.945Z,112.90
2018-04-10T16:00:26.702Z,103.77
2018-04-10T16:27:07.143Z,35.53
2018-04-10T16:29:12.464Z,38.70
2018-04-10T16:31:17.750Z,33.40
2018-04-10T16:33:23.574Z,33.60
2018-04-10T16:35:28.939Z,32.07
2018-04-10T16:37:34.183Z,27.87
2018-04-10T16:39:39.803Z,29.33
2018-04-10T16:41:45.038Z,26.90
2018-04-10T16:43:50.468Z,25.00
2018-04-10T16:45:55.990Z,22.40
2018-04-10T16:48:01.350Z,21.70
2018-04-10T16:50:06.968Z,19.50
2018-04-10T16:52:12.566Z,18.50
2018-04-10T16:54:17.879Z,11.30
2018-04-10T16:56:23.300Z,18.13
2018-04-10T16:58:28.803Z,475.60
2018-04-10T17:00:34.070Z,132.70
2018-04-10T17:02:39.351Z,269.47
2018-04-10T17:04:44.908Z,159.20
2018-04-10T17:06:50.762Z,166.83
2018-04-10T17:08:56.117Z,133.70
2018-04-10T17:11:01.631Z,151.23
2018-04-10T17:13:07.010Z,131.77
2018-04-10T17:15:12.574Z,114.90
2018-04-10T17:17:18.743Z,742.37
2018-04-10T17:19:24.215Z,999.90
2018-04-10T17:21:29.607Z,298.47
2018-04-10T17:23:35.335Z,242.60
2018-04-10T17:25:41.545Z,175.37
2018-04-10T17:27:47.279Z,218.13
2018-04-10T17:29:53.159Z,234.63
2018-04-10T17:31:58.738Z,188.03
2018-04-10T17:34:04.502Z,124.83
2018-04-10T17:36:10.126Z,106.27
2018-04-10T17:38:15.505Z,175.10
2018-04-10T17:40:20.873Z,131.53
2018-04-10T17:42:27.170Z,101.27
2018-04-10T17:44:32.489Z,115.43
2018-04-10T17:46:38.179Z,104.87
2018-04-10T17:48:43.790Z,93.47
2018-04-10T17:50:49.131Z,78.93
2018-04-10T17:52:54.402Z,56.10
2018-04-10T17:54:59.982Z,77.90
2018-04-10T17:57:05.334Z,80.20
2018-04-10T17:59:10.658Z,60.70
2018-04-10T18:02:40.078Z,61.50
2018-04-10T18:04:45.363Z,49.47
2018-04-10T18:06:51.198Z,42.47
2018-04-10T18:08:56.550Z,59.00
2018-04-10T18:11:01.859Z,57.93
2018-04-10T18:13:07.498Z,51.17
2018-04-10T18:15:12.774Z,47.97
2018-04-10T18:17:18.421Z,42.50
2018-04-10T18:19:24.190Z,38.00
2018-04-10T18:21:29.394Z,47.37
2018-04-10T18:23:34.717Z,37.60
2018-04-10T18:25:40.318Z,38.50
2018-04-10T18:27:45.629Z,34.80
2018-04-10T18:29:50.882Z,28.43
2018-04-10T18:31:56.424Z,24.30
2018-04-10T18:34:01.841Z,253.30
2018-04-10T18:36:07.250Z,250.50
2018-04-10T18:38:13.144Z,222.30
2018-04-10T18:40:18.483Z,269.50
2018-04-10T18:42:24.018Z,131.63
2018-04-10T18:44:29.798Z,127.30
2018-04-10T18:46:35.190Z,81.10
2018-04-10T18:48:40.591Z,126.33
2018-04-10T18:50:51.268Z,135.03
2018-04-10T18:52:57.374Z,120.40
2018-04-10T18:55:03.369Z,115.67
2018-04-10T18:57:09.028Z,101.17
2018-04-10T18:59:14.349Z,97.53
2018-04-10T19:01:20.188Z,87.17
2018-04-10T19:03:25.781Z,77.40
2018-04-10T19:05:31.087Z,61.20
2018-04-10T19:07:36.326Z,60.80
2018-04-10T19:09:42.106Z,61.20
2018-04-10T19:11:47.441Z,43.73
2018-04-10T19:13:52.770Z,51.20
2018-04-10T19:15:58.374Z,418.20
2018-04-10T19:18:04.469Z,546.00
2018-04-10T19:20:10.140Z,406.63
2018-04-10T19:22:16.366Z,234.53
2018-04-10T19:24:22.021Z,140.70
2018-04-10T19:26:27.516Z,139.63
2018-04-10T19:28:33.421Z,144.07
2018-04-10T19:30:38.706Z,133.33
2018-04-10T19:32:43.950Z,106.30
2018-04-10T19:34:49.571Z,107.73
2018-04-10T19:36:54.923Z,96.27
2018-04-10T19:39:00.342Z,92.80
2018-04-10T19:41:06.284Z,85.93
2018-04-10T19:43:11.789Z,76.43
2018-04-10T19:45:17.285Z,75.87
2018-04-10T19:47:23.046Z,75.03
2018-04-10T19:49:28.394Z,75.37
2018-04-10T19:51:34.826Z,58.10
2018-04-10T19:53:40.528Z,61.00
2018-04-10T19:55:45.940Z,50.07
2018-04-10T19:57:51.323Z,50.67
2018-04-10T19:59:56.977Z,46.90
2018-04-10T20:02:03.072Z,47.73
2018-04-10T20:04:08.434Z,38.37
2018-04-10T20:06:14.071Z,33.70
2018-04-10T20:08:19.553Z,39.10
2018-04-10T20:10:24.788Z,24.10
2018-04-10T20:12:30.358Z,35.77
2018-04-10T20:14:35.665Z,34.50
2018-04-10T20:16:41.486Z,30.50
2018-04-10T20:18:47.022Z,26.50
2018-04-10T20:20:52.326Z,249.27
2018-04-10T20:22:58.256Z,356.20
2018-04-10T20:25:03.845Z,417.27
2018-04-10T20:27:09.174Z,267.97
2018-04-10T20:29:14.422Z,539.40
2018-04-10T20:31:20.023Z,348.00
2018-04-10T20:33:25.358Z,172.23
2018-04-10T20:35:30.681Z,277.67
2018-04-10T20:37:36.315Z,340.43
2018-04-10T20:39:41.728Z,175.73
2018-04-10T20:41:47.003Z,158.70
2018-04-10T20:43:52.640Z,56.83
2018-04-10T20:45:57.948Z,240.90
2018-04-10T20:48:03.867Z,78.83
2018-04-10T20:50:10.117Z,53.93
2018-04-10T20:52:15.366Z,43.70
2018-04-10T20:54:20.865Z,519.10
2018-04-10T20:56:26.744Z,243.10
2018-04-10T20:58:32.045Z,50.83
2018-04-10T21:00:37.352Z,307.37
2018-04-10T21:02:42.929Z,302.23
2018-04-10T21:04:48.167Z,764.00
2018-04-10T21:06:53.996Z,272.43
2018-04-10T21:11:12.408Z,621.07
2018-04-10T21:13:17.879Z,136.40
2018-04-10T21:15:24.579Z,306.73
2018-04-10T21:17:29.898Z,40.20
2018-04-10T21:19:35.323Z,23.90
2018-04-10T21:21:41.087Z,24.23
2018-04-10T21:23:48.734Z,16.63
2018-04-10T21:25:54.255Z,543.03
2018-04-10T21:27:59.969Z,276.40
2018-04-10T21:30:05.479Z,36.17
2018-04-10T21:32:15.091Z,17.10
2018-04-10T21:34:33.843Z,16.33
2018-04-10T21:36:47.997Z,16.13
2018-04-10T21:39:01.107Z,42.73
2018-04-10T21:41:07.466Z,138.23
2018-04-10T21:43:18.598Z,42.30
2018-04-10T21:45:25.936Z,13.87
2018-04-10T21:47:32.058Z,27.03
2018-04-10T21:49:39.516Z,12.57
2018-04-10T21:51:44.941Z,340.93
2018-04-10T21:53:57.651Z,427.37
2018-04-10T21:56:02.975Z,292.60
2018-04-10T21:58:14.483Z,197.23
2018-04-10T22:00:25.493Z,118.43
2018-04-10T22:02:33.022Z,72.87
2018-04-10T22:04:38.362Z,70.13
2018-04-10T22:06:44.004Z,83.37
2018-04-10T22:08:49.556Z,68.90
2018-04-10T22:10:54.853Z,59.67
2018-04-10T22:33:30.352Z,387.03
2018-04-10T22:35:35.706Z,477.60
2018-04-10T22:37:40.999Z,336.60
2018-04-10T22:39:46.638Z,176.37
2018-04-10T22:41:51.995Z,130.60
2018-04-10T22:43:57.280Z,127.80
2018-04-10T22:46:02.979Z,195.73
2018-04-10T22:48:09.801Z,892.70
2018-04-10T22:50:18.497Z,440.80
2018-04-10T22:52:24.201Z,143.47
2018-04-10T22:54:33.065Z,99.80
2018-04-10T22:56:44.906Z,87.90
2018-04-10T22:58:52.996Z,79.10
2018-04-10T23:00:58.345Z,73.73
2018-04-10T23:03:04.785Z,62.23
2018-04-10T23:05:10.340Z,61.27
2018-04-10T23:07:15.699Z,59.50
2018-04-10T23:09:20.959Z,46.20
2018-04-10T23:11:26.544Z,47.13
2018-04-10T23:13:31.819Z,41.57
2018-04-10T23:15:37.570Z,41.20
2018-04-10T23:17:44.121Z,38.63
2018-04-10T23:19:50.002Z,40.60
2018-04-10T23:21:55.258Z,42.17
2018-04-10T23:24:00.996Z,39.77
2018-04-10T23:26:07.120Z,30.53
2018-04-10T23:28:12.395Z,30.43
2018-04-10T23:30:18.384Z,27.57
2018-04-10T23:32:24.302Z,28.83
2018-04-10T23:34:30.134Z,24.60
2018-04-10T23:36:36.342Z,23.07
2018-04-10T23:38:42.188Z,23.40
2018-04-10T23:40:48.754Z,21.13
2018-04-10T23:42:54.795Z,19.43
2018-04-10T23:45:00.570Z,22.43
2018-04-10T23:47:06.911Z,21.90
2018-04-10T23:49:12.202Z,15.63
2018-04-10T23:51:17.498Z,19.37
2018-04-10T23:53:23.612Z,14.27
2018-04-10T23:55:29.705Z,13.10
2018-04-10T23:57:35.067Z,12.90
2018-04-10T23:59:41.427Z,12.63
